sensor_id;sensor_type;location;lat;lon;timestamp;P1;durP1;ratioP1;P2;durP2;ratioP2
10309;SDS011;5200;43.236;27.986;2022-11-20T00:01:28;8.63;;;4.75;;
10309;SDS011;5200;43.236;27.986;2022-11-20T00:03:55;6.95;;;4.30;;
10309;SDS011;5200;43.236;27.986;2022-11-20T00:06:25;10.85;;;4.38;;
10309;SDS011;5200;43.236;27.986;2022-11-20T00:08:54;7.82;;;3.92;;
10309;SDS011;5200;43.236;27.986;2022-11-20T00:11:23;15.07;;;4.13;;
10309;SDS011;5200;43.236;27.986;2022-11-20T00:13:52;8.48;;;3.33;;
10309;SDS011;5200;43.236;27.986;2022-11-20T00:16:23;9.50;;;3.83;;
10309;SDS011;5200;43.236;27.986;2022-11-20T00:18:51;4.63;;;3.03;;
10309;SDS011;5200;43.236;27.986;2022-11-20T00:21:20;7.35;;;3.70;;
10309;SDS011;5200;43.236;27.986;2022-11-20T00:23:51;7.68;;;3.50;;
10309;SDS011;5200;43.236;27.986;2022-11-20T00:26:19;17.17;;;3.80;;
10309;SDS011;5200;43.236;27.986;2022-11-20T00:28:49;16.45;;;4.35;;
10309;SDS011;5200;43.236;27.986;2022-11-20T00:31:17;5.95;;;3.47;;
10309;SDS011;5200;43.236;27.986;2022-11-20T00:33:44;12.73;;;3.65;;
10309;SDS011;5200;43.236;27.986;2022-11-20T00:36:12;12.02;;;3.90;;
10309;SDS011;5200;43.236;27.986;2022-11-20T00:38:40;9.98;;;3.90;;
10309;SDS011;5200;43.236;27.986;2022-11-20T00:41:10;10.13;;;3.95;;
10309;SDS011;5200;43.236;27.986;2022-11-20T00:43:38;8.60;;;4.70;;
10309;SDS011;5200;43.236;27.986;2022-11-20T00:46:05;7.65;;;3.70;;
10309;SDS011;5200;43.236;27.986;2022-11-20T00:48:34;9.38;;;3.65;;
10309;SDS011;5200;43.236;27.986;2022-11-20T00:51:01;11.38;;;3.70;;
10309;SDS011;5200;43.236;27.986;2022-11-20T00:53:28;9.30;;;3.45;;
10309;SDS011;5200;43.236;27.986;2022-11-20T00:55:55;6.03;;;3.47;;
10309;SDS011;5200;43.236;27.986;2022-11-20T00:58:24;12.82;;;3.58;;
10309;SDS011;5200;43.236;27.986;2022-11-20T01:00:59;12.30;;;4.95;;
10309;SDS011;5200;43.236;27.986;2022-11-20T01:03:27;9.35;;;3.80;;
10309;SDS011;5200;43.236;27.986;2022-11-20T01:05:59;8.20;;;3.53;;
10309;SDS011;5200;43.236;27.986;2022-11-20T01:08:28;9.57;;;3.50;;
10309;SDS011;5200;43.236;27.986;2022-11-20T01:10:58;12.43;;;4.30;;
10309;SDS011;5200;43.236;27.986;2022-11-20T01:13:27;9.45;;;4.18;;
10309;SDS011;5200;43.236;27.986;2022-11-20T01:16:04;10.40;;;4.22;;
10309;SDS011;5200;43.236;27.986;2022-11-20T01:18:31;6.30;;;4.07;;
10309;SDS011;5200;43.236;27.986;2022-11-20T01:21:02;11.07;;;4.18;;
10309;SDS011;5200;43.236;27.986;2022-11-20T01:23:31;13.57;;;4.30;;
10309;SDS011;5200;43.236;27.986;2022-11-20T01:25:59;8.90;;;4.10;;
10309;SDS011;5200;43.236;27.986;2022-11-20T01:28:29;6.13;;;3.80;;
10309;SDS011;5200;43.236;27.986;2022-11-20T01:30:56;11.20;;;4.35;;
10309;SDS011;5200;43.236;27.986;2022-11-20T01:33:24;9.98;;;3.97;;
10309;SDS011;5200;43.236;27.986;2022-11-20T01:35:51;14.55;;;4.40;;
10309;SDS011;5200;43.236;27.986;2022-11-20T01:38:18;7.90;;;3.72;;
10309;SDS011;5200;43.236;27.986;2022-11-20T01:40:53;11.07;;;4.35;;
10309;SDS011;5200;43.236;27.986;2022-11-20T01:43:20;12.32;;;4.55;;
10309;SDS011;5200;43.236;27.986;2022-11-20T01:45:58;10.88;;;3.72;;
10309;SDS011;5200;43.236;27.986;2022-11-20T01:48:28;9.38;;;3.67;;
10309;SDS011;5200;43.236;27.986;2022-11-20T01:50:59;11.80;;;4.07;;
10309;SDS011;5200;43.236;27.986;2022-11-20T01:53:30;11.00;;;4.28;;
10309;SDS011;5200;43.236;27.986;2022-11-20T01:56:02;6.70;;;3.60;;
10309;SDS011;5200;43.236;27.986;2022-11-20T01:58:35;12.02;;;4.35;;
10309;SDS011;5200;43.236;27.986;2022-11-20T02:01:05;7.13;;;3.38;;
10309;SDS011;5200;43.236;27.986;2022-11-20T02:03:32;6.57;;;3.33;;
10309;SDS011;5200;43.236;27.986;2022-11-20T02:06:01;9.02;;;3.65;;
10309;SDS011;5200;43.236;27.986;2022-11-20T02:08:32;10.13;;;3.90;;
10309;SDS011;5200;43.236;27.986;2022-11-20T02:11:01;5.63;;;3.88;;
10309;SDS011;5200;43.236;27.986;2022-11-20T02:13:28;9.02;;;4.38;;
10309;SDS011;5200;43.236;27.986;2022-11-20T02:16:18;8.88;;;4.50;;
10309;SDS011;5200;43.236;27.986;2022-11-20T02:18:48;8.55;;;3.78;;
10309;SDS011;5200;43.236;27.986;2022-11-20T02:21:22;9.23;;;4.00;;
10309;SDS011;5200;43.236;27.986;2022-11-20T02:24:01;7.32;;;3.60;;
10309;SDS011;5200;43.236;27.986;2022-11-20T02:26:31;12.43;;;4.65;;
10309;SDS011;5200;43.236;27.986;2022-11-20T02:29:01;8.63;;;3.83;;
10309;SDS011;5200;43.236;27.986;2022-11-20T02:31:33;8.18;;;3.72;;
10309;SDS011;5200;43.236;27.986;2022-11-20T02:34:04;6.88;;;3.22;;
10309;SDS011;5200;43.236;27.986;2022-11-20T02:36:31;9.52;;;3.40;;
10309;SDS011;5200;43.236;27.986;2022-11-20T02:39:01;5.90;;;3.22;;
10309;SDS011;5200;43.236;27.986;2022-11-20T02:41:32;4.97;;;3.30;;
10309;SDS011;5200;43.236;27.986;2022-11-20T02:44:00;6.65;;;3.80;;
10309;SDS011;5200;43.236;27.986;2022-11-20T02:46:27;8.07;;;3.33;;
10309;SDS011;5200;43.236;27.986;2022-11-20T02:48:54;9.95;;;3.88;;
10309;SDS011;5200;43.236;27.986;2022-11-20T02:51:21;7.28;;;3.38;;
10309;SDS011;5200;43.236;27.986;2022-11-20T02:53:48;5.63;;;3.25;;
10309;SDS011;5200;43.236;27.986;2022-11-20T02:56:17;7.38;;;3.50;;
10309;SDS011;5200;43.236;27.986;2022-11-20T02:58:44;8.82;;;3.50;;
10309;SDS011;5200;43.236;27.986;2022-11-20T03:01:11;8.32;;;3.30;;
10309;SDS011;5200;43.236;27.986;2022-11-20T03:03:38;7.95;;;3.83;;
10309;SDS011;5200;43.236;27.986;2022-11-20T03:06:05;7.68;;;3.33;;
10309;SDS011;5200;43.236;27.986;2022-11-20T03:08:32;11.13;;;4.05;;
10309;SDS011;5200;43.236;27.986;2022-11-20T03:11:02;18.83;;;4.03;;
10309;SDS011;5200;43.236;27.986;2022-11-20T03:13:31;8.63;;;3.22;;
10309;SDS011;5200;43.236;27.986;2022-11-20T03:16:04;10.80;;;3.35;;
10309;SDS011;5200;43.236;27.986;2022-11-20T03:18:35;12.40;;;3.53;;
10309;SDS011;5200;43.236;27.986;2022-11-20T03:21:02;5.50;;;3.47;;
10309;SDS011;5200;43.236;27.986;2022-11-20T03:23:29;13.45;;;3.80;;
10309;SDS011;5200;43.236;27.986;2022-11-20T03:26:06;13.25;;;3.10;;
10309;SDS011;5200;43.236;27.986;2022-11-20T03:28:36;12.07;;;4.05;;
10309;SDS011;5200;43.236;27.986;2022-11-20T03:31:07;7.53;;;3.40;;
10309;SDS011;5200;43.236;27.986;2022-11-20T03:33:35;8.75;;;3.30;;
10309;SDS011;5200;43.236;27.986;2022-11-20T03:36:02;6.40;;;2.97;;
10309;SDS011;5200;43.236;27.986;2022-11-20T03:38:30;7.40;;;3.13;;
10309;SDS011;5200;43.236;27.986;2022-11-20T03:40:58;9.10;;;3.30;;
10309;SDS011;5200;43.236;27.986;2022-11-20T03:43:26;8.90;;;3.95;;
10309;SDS011;5200;43.236;27.986;2022-11-20T03:45:54;8.13;;;3.40;;
10309;SDS011;5200;43.236;27.986;2022-11-20T03:48:23;12.88;;;3.05;;
10309;SDS011;5200;43.236;27.986;2022-11-20T03:50:50;4.97;;;2.85;;
10309;SDS011;5200;43.236;27.986;2022-11-20T03:53:17;5.82;;;2.92;;
10309;SDS011;5200;43.236;27.986;2022-11-20T03:55:44;7.93;;;3.30;;
10309;SDS011;5200;43.236;27.986;2022-11-20T03:58:11;9.77;;;3.70;;
10309;SDS011;5200;43.236;27.986;2022-11-20T04:00:38;12.18;;;3.45;;
10309;SDS011;5200;43.236;27.986;2022-11-20T04:03:06;9.00;;;3.10;;
10309;SDS011;5200;43.236;27.986;2022-11-20T04:05:33;7.32;;;3.38;;
10309;SDS011;5200;43.236;27.986;2022-11-20T04:08:00;10.70;;;3.83;;
10309;SDS011;5200;43.236;27.986;2022-11-20T04:10:27;7.75;;;3.00;;
10309;SDS011;5200;43.236;27.986;2022-11-20T04:12:54;11.85;;;4.10;;
10309;SDS011;5200;43.236;27.986;2022-11-20T04:15:21;11.13;;;3.33;;
10309;SDS011;5200;43.236;27.986;2022-11-20T04:17:47;11.32;;;3.45;;
10309;SDS011;5200;43.236;27.986;2022-11-20T04:20:16;9.13;;;3.25;;
10309;SDS011;5200;43.236;27.986;2022-11-20T04:22:43;11.00;;;3.03;;
10309;SDS011;5200;43.236;27.986;2022-11-20T04:25:09;12.55;;;3.38;;
10309;SDS011;5200;43.236;27.986;2022-11-20T04:27:36;12.20;;;3.60;;
10309;SDS011;5200;43.236;27.986;2022-11-20T04:30:03;10.43;;;3.70;;
10309;SDS011;5200;43.236;27.986;2022-11-20T04:32:31;7.30;;;2.90;;
10309;SDS011;5200;43.236;27.986;2022-11-20T04:34:58;9.25;;;3.20;;
10309;SDS011;5200;43.236;27.986;2022-11-20T04:37:26;7.43;;;3.00;;
10309;SDS011;5200;43.236;27.986;2022-11-20T04:39:53;5.50;;;3.20;;
10309;SDS011;5200;43.236;27.986;2022-11-20T04:42:19;8.70;;;3.67;;
10309;SDS011;5200;43.236;27.986;2022-11-20T04:44:55;8.80;;;3.40;;
10309;SDS011;5200;43.236;27.986;2022-11-20T04:47:22;12.13;;;3.85;;
10309;SDS011;5200;43.236;27.986;2022-11-20T04:49:49;10.02;;;3.42;;
10309;SDS011;5200;43.236;27.986;2022-11-20T04:52:16;5.95;;;3.00;;
10309;SDS011;5200;43.236;27.986;2022-11-20T04:54:44;10.82;;;3.90;;
10309;SDS011;5200;43.236;27.986;2022-11-20T04:57:12;7.03;;;2.75;;
10309;SDS011;5200;43.236;27.986;2022-11-20T04:59:40;9.52;;;3.17;;
10309;SDS011;5200;43.236;27.986;2022-11-20T05:02:07;11.60;;;3.20;;
10309;SDS011;5200;43.236;27.986;2022-11-20T05:04:34;7.82;;;3.25;;
10309;SDS011;5200;43.236;27.986;2022-11-20T05:07:01;11.50;;;3.15;;
10309;SDS011;5200;43.236;27.986;2022-11-20T05:09:29;8.82;;;3.28;;
10309;SDS011;5200;43.236;27.986;2022-11-20T05:11:57;7.18;;;2.55;;
10309;SDS011;5200;43.236;27.986;2022-11-20T05:14:24;6.13;;;2.83;;
10309;SDS011;5200;43.236;27.986;2022-11-20T05:16:51;10.98;;;2.83;;
10309;SDS011;5200;43.236;27.986;2022-11-20T05:19:18;11.60;;;2.83;;
10309;SDS011;5200;43.236;27.986;2022-11-20T05:21:45;6.78;;;2.58;;
10309;SDS011;5200;43.236;27.986;2022-11-20T05:24:12;11.20;;;2.90;;
10309;SDS011;5200;43.236;27.986;2022-11-20T05:26:41;7.72;;;3.65;;
10309;SDS011;5200;43.236;27.986;2022-11-20T05:29:11;7.78;;;3.00;;
10309;SDS011;5200;43.236;27.986;2022-11-20T05:31:38;5.13;;;2.72;;
10309;SDS011;5200;43.236;27.986;2022-11-20T05:34:06;6.20;;;2.78;;
10309;SDS011;5200;43.236;27.986;2022-11-20T05:36:33;8.45;;;2.63;;
10309;SDS011;5200;43.236;27.986;2022-11-20T05:39:00;10.18;;;2.65;;
10309;SDS011;5200;43.236;27.986;2022-11-20T05:41:27;10.77;;;3.00;;
10309;SDS011;5200;43.236;27.986;2022-11-20T05:43:55;10.02;;;3.08;;
10309;SDS011;5200;43.236;27.986;2022-11-20T05:46:24;9.30;;;3.00;;
10309;SDS011;5200;43.236;27.986;2022-11-20T05:48:51;9.43;;;2.70;;
10309;SDS011;5200;43.236;27.986;2022-11-20T05:51:18;11.55;;;3.13;;
10309;SDS011;5200;43.236;27.986;2022-11-20T05:53:46;6.10;;;2.20;;
10309;SDS011;5200;43.236;27.986;2022-11-20T05:56:14;10.40;;;3.17;;
10309;SDS011;5200;43.236;27.986;2022-11-20T05:58:42;6.43;;;2.70;;
10309;SDS011;5200;43.236;27.986;2022-11-20T06:01:11;10.20;;;3.10;;
10309;SDS011;5200;43.236;27.986;2022-11-20T06:03:41;6.72;;;2.30;;
10309;SDS011;5200;43.236;27.986;2022-11-20T06:06:11;7.05;;;3.00;;
10309;SDS011;5200;43.236;27.986;2022-11-20T06:08:38;11.82;;;3.15;;
10309;SDS011;5200;43.236;27.986;2022-11-20T06:11:05;10.43;;;2.97;;
10309;SDS011;5200;43.236;27.986;2022-11-20T06:13:34;8.50;;;3.70;;
10309;SDS011;5200;43.236;27.986;2022-11-20T06:16:01;6.55;;;2.53;;
10309;SDS011;5200;43.236;27.986;2022-11-20T06:18:29;8.88;;;2.85;;
10309;SDS011;5200;43.236;27.986;2022-11-20T06:21:01;10.45;;;2.78;;
10309;SDS011;5200;43.236;27.986;2022-11-20T06:23:29;10.48;;;3.08;;
10309;SDS011;5200;43.236;27.986;2022-11-20T06:26:00;15.65;;;4.13;;
10309;SDS011;5200;43.236;27.986;2022-11-20T06:28:29;7.45;;;2.25;;
10309;SDS011;5200;43.236;27.986;2022-11-20T06:30:57;8.23;;;3.15;;
10309;SDS011;5200;43.236;27.986;2022-11-20T06:33:24;11.45;;;3.20;;
10309;SDS011;5200;43.236;27.986;2022-11-20T06:35:51;9.77;;;3.40;;
10309;SDS011;5200;43.236;27.986;2022-11-20T06:38:20;11.27;;;3.42;;
10309;SDS011;5200;43.236;27.986;2022-11-20T06:40:46;8.88;;;3.00;;
10309;SDS011;5200;43.236;27.986;2022-11-20T06:43:13;6.65;;;2.92;;
10309;SDS011;5200;43.236;27.986;2022-11-20T06:45:40;6.90;;;2.70;;
10309;SDS011;5200;43.236;27.986;2022-11-20T06:48:07;7.32;;;2.55;;
10309;SDS011;5200;43.236;27.986;2022-11-20T06:50:37;7.40;;;2.22;;
10309;SDS011;5200;43.236;27.986;2022-11-20T06:53:04;6.70;;;2.58;;
10309;SDS011;5200;43.236;27.986;2022-11-20T06:55:33;11.93;;;2.75;;
10309;SDS011;5200;43.236;27.986;2022-11-20T06:57:59;12.35;;;3.13;;
10309;SDS011;5200;43.236;27.986;2022-11-20T07:00:26;16.75;;;3.03;;
10309;SDS011;5200;43.236;27.986;2022-11-20T07:02:53;16.98;;;4.18;;
10309;SDS011;5200;43.236;27.986;2022-11-20T07:05:20;8.52;;;2.80;;
10309;SDS011;5200;43.236;27.986;2022-11-20T07:07:47;9.45;;;2.30;;
10309;SDS011;5200;43.236;27.986;2022-11-20T07:10:14;9.27;;;2.85;;
10309;SDS011;5200;43.236;27.986;2022-11-20T07:12:42;7.72;;;2.45;;
10309;SDS011;5200;43.236;27.986;2022-11-20T07:15:15;9.10;;;3.53;;
10309;SDS011;5200;43.236;27.986;2022-11-20T07:17:41;8.77;;;2.70;;
10309;SDS011;5200;43.236;27.986;2022-11-20T07:20:09;6.63;;;2.92;;
10309;SDS011;5200;43.236;27.986;2022-11-20T07:22:36;11.23;;;2.60;;
10309;SDS011;5200;43.236;27.986;2022-11-20T07:25:04;10.35;;;2.72;;
10309;SDS011;5200;43.236;27.986;2022-11-20T07:27:31;7.50;;;2.75;;
10309;SDS011;5200;43.236;27.986;2022-11-20T07:29:59;13.70;;;2.58;;
10309;SDS011;5200;43.236;27.986;2022-11-20T07:32:26;12.73;;;3.35;;
10309;SDS011;5200;43.236;27.986;2022-11-20T07:34:53;5.15;;;2.55;;
10309;SDS011;5200;43.236;27.986;2022-11-20T07:37:20;4.00;;;2.53;;
10309;SDS011;5200;43.236;27.986;2022-11-20T07:39:47;9.88;;;3.17;;
10309;SDS011;5200;43.236;27.986;2022-11-20T07:42:14;7.22;;;3.15;;
10309;SDS011;5200;43.236;27.986;2022-11-20T07:44:41;12.10;;;4.15;;
10309;SDS011;5200;43.236;27.986;2022-11-20T07:47:09;8.80;;;3.13;;
10309;SDS011;5200;43.236;27.986;2022-11-20T07:49:36;14.00;;;3.35;;
10309;SDS011;5200;43.236;27.986;2022-11-20T07:52:03;13.93;;;3.10;;
10309;SDS011;5200;43.236;27.986;2022-11-20T07:54:29;7.20;;;3.05;;
10309;SDS011;5200;43.236;27.986;2022-11-20T07:56:56;6.72;;;3.35;;
10309;SDS011;5200;43.236;27.986;2022-11-20T07:59:23;19.90;;;8.35;;
10309;SDS011;5200;43.236;27.986;2022-11-20T08:01:50;20.13;;;7.82;;
10309;SDS011;5200;43.236;27.986;2022-11-20T08:04:18;16.35;;;7.00;;
10309;SDS011;5200;43.236;27.986;2022-11-20T08:06:45;11.60;;;3.80;;
10309;SDS011;5200;43.236;27.986;2022-11-20T08:09:12;11.10;;;4.03;;
10309;SDS011;5200;43.236;27.986;2022-11-20T08:11:39;17.15;;;5.63;;
10309;SDS011;5200;43.236;27.986;2022-11-20T08:14:23;22.73;;;8.15;;
10309;SDS011;5200;43.236;27.986;2022-11-20T08:16:50;19.38;;;8.07;;
10309;SDS011;5200;43.236;27.986;2022-11-20T08:19:17;25.17;;;11.70;;
10309;SDS011;5200;43.236;27.986;2022-11-20T08:21:45;31.83;;;11.18;;
10309;SDS011;5200;43.236;27.986;2022-11-20T08:24:12;20.60;;;8.77;;
10309;SDS011;5200;43.236;27.986;2022-11-20T08:26:39;23.42;;;9.98;;
10309;SDS011;5200;43.236;27.986;2022-11-20T08:29:07;17.83;;;8.00;;
10309;SDS011;5200;43.236;27.986;2022-11-20T08:31:34;19.48;;;6.53;;
10309;SDS011;5200;43.236;27.986;2022-11-20T08:34:01;13.50;;;5.20;;
10309;SDS011;5200;43.236;27.986;2022-11-20T08:36:32;15.85;;;4.25;;
10309;SDS011;5200;43.236;27.986;2022-11-20T08:38:59;10.07;;;4.07;;
10309;SDS011;5200;43.236;27.986;2022-11-20T08:41:26;38.83;;;18.95;;
10309;SDS011;5200;43.236;27.986;2022-11-20T08:43:54;38.97;;;19.02;;
10309;SDS011;5200;43.236;27.986;2022-11-20T08:46:22;12.18;;;5.03;;
10309;SDS011;5200;43.236;27.986;2022-11-20T08:48:50;11.27;;;3.65;;
10309;SDS011;5200;43.236;27.986;2022-11-20T08:51:17;11.10;;;4.13;;
10309;SDS011;5200;43.236;27.986;2022-11-20T08:53:46;11.05;;;3.75;;
10309;SDS011;5200;43.236;27.986;2022-11-20T08:56:13;13.88;;;3.22;;
10309;SDS011;5200;43.236;27.986;2022-11-20T08:58:40;12.20;;;3.95;;
10309;SDS011;5200;43.236;27.986;2022-11-20T09:01:07;17.27;;;4.07;;
10309;SDS011;5200;43.236;27.986;2022-11-20T09:03:34;11.73;;;4.13;;
10309;SDS011;5200;43.236;27.986;2022-11-20T09:06:02;13.77;;;3.83;;
10309;SDS011;5200;43.236;27.986;2022-11-20T09:08:30;11.55;;;4.05;;
10309;SDS011;5200;43.236;27.986;2022-11-20T09:10:58;14.52;;;3.25;;
10309;SDS011;5200;43.236;27.986;2022-11-20T09:13:26;11.77;;;4.07;;
10309;SDS011;5200;43.236;27.986;2022-11-20T09:15:53;16.55;;;4.28;;
10309;SDS011;5200;43.236;27.986;2022-11-20T09:18:21;11.85;;;4.43;;
10309;SDS011;5200;43.236;27.986;2022-11-20T09:20:48;12.75;;;3.97;;
10309;SDS011;5200;43.236;27.986;2022-11-20T09:23:15;11.15;;;3.83;;
10309;SDS011;5200;43.236;27.986;2022-11-20T09:25:43;12.55;;;3.63;;
10309;SDS011;5200;43.236;27.986;2022-11-20T09:28:11;12.90;;;3.08;;
10309;SDS011;5200;43.236;27.986;2022-11-20T09:30:38;14.07;;;4.63;;
10309;SDS011;5200;43.236;27.986;2022-11-20T09:33:05;15.23;;;5.90;;
10309;SDS011;5200;43.236;27.986;2022-11-20T09:35:32;23.90;;;6.32;;
10309;SDS011;5200;43.236;27.986;2022-11-20T09:38:03;11.32;;;4.07;;
10309;SDS011;5200;43.236;27.986;2022-11-20T09:40:31;10.80;;;4.15;;
10309;SDS011;5200;43.236;27.986;2022-11-20T09:43:01;11.05;;;4.50;;
10309;SDS011;5200;43.236;27.986;2022-11-20T09:45:46;10.98;;;4.13;;
10309;SDS011;5200;43.236;27.986;2022-11-20T09:48:34;12.88;;;4.43;;
10309;SDS011;5200;43.236;27.986;2022-11-20T09:51:11;14.05;;;4.22;;
10309;SDS011;5200;43.236;27.986;2022-11-20T09:53:51;17.60;;;4.97;;
10309;SDS011;5200;43.236;27.986;2022-11-20T09:56:27;13.60;;;4.50;;
10309;SDS011;5200;43.236;27.986;2022-11-20T09:58:57;13.35;;;3.75;;
10309;SDS011;5200;43.236;27.986;2022-11-20T10:01:31;17.88;;;4.25;;
10309;SDS011;5200;43.236;27.986;2022-11-20T10:04:01;14.00;;;3.53;;
10309;SDS011;5200;43.236;27.986;2022-11-20T10:06:31;16.52;;;4.43;;
10309;SDS011;5200;43.236;27.986;2022-11-20T10:09:01;12.15;;;3.13;;
10309;SDS011;5200;43.236;27.986;2022-11-20T10:11:46;11.05;;;2.90;;
10309;SDS011;5200;43.236;27.986;2022-11-20T10:14:21;8.70;;;3.10;;
10309;SDS011;5200;43.236;27.986;2022-11-20T10:17:03;8.75;;;2.70;;
10309;SDS011;5200;43.236;27.986;2022-11-20T10:19:51;12.38;;;3.33;;
10309;SDS011;5200;43.236;27.986;2022-11-20T10:22:37;11.35;;;3.55;;
10309;SDS011;5200;43.236;27.986;2022-11-20T10:25:14;7.00;;;2.92;;
10309;SDS011;5200;43.236;27.986;2022-11-20T10:30:52;11.35;;;3.05;;
10309;SDS011;5200;43.236;27.986;2022-11-20T10:33:25;13.05;;;3.58;;
10309;SDS011;5200;43.236;27.986;2022-11-20T10:35:58;16.08;;;3.53;;
10309;SDS011;5200;43.236;27.986;2022-11-20T10:38:35;15.20;;;3.33;;
10309;SDS011;5200;43.236;27.986;2022-11-20T10:41:06;12.23;;;3.30;;
10309;SDS011;5200;43.236;27.986;2022-11-20T10:43:52;9.70;;;3.60;;
10309;SDS011;5200;43.236;27.986;2022-11-20T10:46:24;10.23;;;3.67;;
10309;SDS011;5200;43.236;27.986;2022-11-20T10:48:53;13.68;;;3.95;;
10309;SDS011;5200;43.236;27.986;2022-11-20T10:51:27;8.65;;;3.25;;
10309;SDS011;5200;43.236;27.986;2022-11-20T10:54:04;14.75;;;3.80;;
10309;SDS011;5200;43.236;27.986;2022-11-20T10:56:44;11.70;;;3.47;;
10309;SDS011;5200;43.236;27.986;2022-11-20T11:02:22;8.23;;;3.17;;
10309;SDS011;5200;43.236;27.986;2022-11-20T11:04:52;10.63;;;3.45;;
10309;SDS011;5200;43.236;27.986;2022-11-20T11:07:21;12.93;;;3.10;;
10309;SDS011;5200;43.236;27.986;2022-11-20T11:09:52;10.85;;;3.38;;
10309;SDS011;5200;43.236;27.986;2022-11-20T11:12:21;13.93;;;4.03;;
10309;SDS011;5200;43.236;27.986;2022-11-20T11:14:50;11.43;;;3.75;;
10309;SDS011;5200;43.236;27.986;2022-11-20T11:17:20;14.48;;;4.18;;
10309;SDS011;5200;43.236;27.986;2022-11-20T11:20:04;8.88;;;3.88;;
10309;SDS011;5200;43.236;27.986;2022-11-20T11:22:34;12.93;;;2.90;;
10309;SDS011;5200;43.236;27.986;2022-11-20T11:25:11;9.55;;;2.80;;
10309;SDS011;5200;43.236;27.986;2022-11-20T11:27:46;11.98;;;3.47;;
10309;SDS011;5200;43.236;27.986;2022-11-20T11:30:14;12.27;;;4.93;;
10309;SDS011;5200;43.236;27.986;2022-11-20T11:32:43;9.43;;;4.50;;
10309;SDS011;5200;43.236;27.986;2022-11-20T11:35:22;15.13;;;5.28;;
10309;SDS011;5200;43.236;27.986;2022-11-20T11:37:50;24.60;;;11.73;;
10309;SDS011;5200;43.236;27.986;2022-11-20T11:40:19;36.60;;;19.05;;
10309;SDS011;5200;43.236;27.986;2022-11-20T11:42:50;23.75;;;13.85;;
10309;SDS011;5200;43.236;27.986;2022-11-20T11:45:21;25.73;;;11.48;;
10309;SDS011;5200;43.236;27.986;2022-11-20T11:47:47;15.10;;;5.93;;
10309;SDS011;5200;43.236;27.986;2022-11-20T11:50:17;24.58;;;11.43;;
10309;SDS011;5200;43.236;27.986;2022-11-20T11:52:48;24.95;;;9.25;;
10309;SDS011;5200;43.236;27.986;2022-11-20T11:55:27;17.25;;;8.73;;
10309;SDS011;5200;43.236;27.986;2022-11-20T11:58:01;33.63;;;18.40;;
10309;SDS011;5200;43.236;27.986;2022-11-20T12:00:38;35.10;;;20.02;;
10309;SDS011;5200;43.236;27.986;2022-11-20T12:03:12;30.42;;;16.35;;
10309;SDS011;5200;43.236;27.986;2022-11-20T12:05:44;33.92;;;19.30;;
10309;SDS011;5200;43.236;27.986;2022-11-20T12:08:17;21.77;;;12.20;;
10309;SDS011;5200;43.236;27.986;2022-11-20T12:10:50;23.75;;;14.55;;
10309;SDS011;5200;43.236;27.986;2022-11-20T12:13:26;31.70;;;14.80;;
10309;SDS011;5200;43.236;27.986;2022-11-20T12:16:03;32.28;;;15.02;;
10309;SDS011;5200;43.236;27.986;2022-11-20T12:18:34;36.70;;;15.38;;
10309;SDS011;5200;43.236;27.986;2022-11-20T12:21:03;32.38;;;15.80;;
10309;SDS011;5200;43.236;27.986;2022-11-20T12:23:42;33.22;;;17.90;;
10309;SDS011;5200;43.236;27.986;2022-11-20T12:26:19;27.20;;;13.45;;
10309;SDS011;5200;43.236;27.986;2022-11-20T12:28:59;73.53;;;36.70;;
10309;SDS011;5200;43.236;27.986;2022-11-20T12:31:41;77.82;;;37.42;;
10309;SDS011;5200;43.236;27.986;2022-11-20T12:34:23;50.95;;;26.17;;
10309;SDS011;5200;43.236;27.986;2022-11-20T12:37:05;22.23;;;8.98;;
10309;SDS011;5200;43.236;27.986;2022-11-20T12:39:42;18.70;;;7.32;;
10309;SDS011;5200;43.236;27.986;2022-11-20T12:42:27;21.45;;;9.25;;
10309;SDS011;5200;43.236;27.986;2022-11-20T12:45:31;21.77;;;8.77;;
10309;SDS011;5200;43.236;27.986;2022-11-20T12:51:17;19.80;;;9.10;;
10309;SDS011;5200;43.236;27.986;2022-11-20T12:54:26;34.05;;;9.95;;
10309;SDS011;5200;43.236;27.986;2022-11-20T12:57:09;42.67;;;22.85;;
10309;SDS011;5200;43.236;27.986;2022-11-20T13:02:37;19.17;;;10.77;;
10309;SDS011;5200;43.236;27.986;2022-11-20T13:05:19;19.30;;;6.32;;
10309;SDS011;5200;43.236;27.986;2022-11-20T13:07:51;32.35;;;14.25;;
10309;SDS011;5200;43.236;27.986;2022-11-20T13:10:21;20.58;;;8.40;;
10309;SDS011;5200;43.236;27.986;2022-11-20T13:12:56;17.02;;;8.18;;
10309;SDS011;5200;43.236;27.986;2022-11-20T13:15:35;23.38;;;7.93;;
10309;SDS011;5200;43.236;27.986;2022-11-20T13:18:14;22.00;;;7.20;;
10309;SDS011;5200;43.236;27.986;2022-11-20T13:20:42;30.20;;;7.63;;
10309;SDS011;5200;43.236;27.986;2022-11-20T13:23:10;31.30;;;10.88;;
10309;SDS011;5200;43.236;27.986;2022-11-20T13:25:37;31.23;;;13.05;;
10309;SDS011;5200;43.236;27.986;2022-11-20T13:30:56;21.00;;;7.95;;
10309;SDS011;5200;43.236;27.986;2022-11-20T13:33:25;21.73;;;5.93;;
10309;SDS011;5200;43.236;27.986;2022-11-20T13:35:56;23.17;;;9.88;;
10309;SDS011;5200;43.236;27.986;2022-11-20T13:38:24;28.27;;;9.63;;
10309;SDS011;5200;43.236;27.986;2022-11-20T13:40:52;21.60;;;7.60;;
10309;SDS011;5200;43.236;27.986;2022-11-20T13:43:32;26.13;;;10.65;;
10309;SDS011;5200;43.236;27.986;2022-11-20T13:46:03;18.67;;;8.88;;
10309;SDS011;5200;43.236;27.986;2022-11-20T13:48:32;16.20;;;6.57;;
10309;SDS011;5200;43.236;27.986;2022-11-20T13:51:09;27.10;;;7.72;;
10309;SDS011;5200;43.236;27.986;2022-11-20T13:53:52;19.27;;;4.63;;
10309;SDS011;5200;43.236;27.986;2022-11-20T13:56:34;16.80;;;7.53;;
10309;SDS011;5200;43.236;27.986;2022-11-20T13:59:10;25.88;;;5.93;;
10309;SDS011;5200;43.236;27.986;2022-11-20T14:01:50;13.73;;;5.30;;
10309;SDS011;5200;43.236;27.986;2022-11-20T14:04:18;18.05;;;5.38;;
10309;SDS011;5200;43.236;27.986;2022-11-20T14:06:52;45.00;;;17.63;;
10309;SDS011;5200;43.236;27.986;2022-11-20T14:09:25;18.80;;;5.90;;
10309;SDS011;5200;43.236;27.986;2022-11-20T14:11:53;53.90;;;23.10;;
10309;SDS011;5200;43.236;27.986;2022-11-20T14:14:22;30.40;;;10.65;;
10309;SDS011;5200;43.236;27.986;2022-11-20T14:16:50;27.33;;;9.70;;
10309;SDS011;5200;43.236;27.986;2022-11-20T14:19:23;20.38;;;6.70;;
10309;SDS011;5200;43.236;27.986;2022-11-20T14:21:54;30.40;;;9.40;;
10309;SDS011;5200;43.236;27.986;2022-11-20T14:24:32;26.67;;;10.00;;
10309;SDS011;5200;43.236;27.986;2022-11-20T14:26:59;37.10;;;12.80;;
10309;SDS011;5200;43.236;27.986;2022-11-20T14:29:28;61.80;;;27.20;;
10309;SDS011;5200;43.236;27.986;2022-11-20T14:31:56;46.42;;;23.80;;
10309;SDS011;5200;43.236;27.986;2022-11-20T14:34:24;86.97;;;46.35;;
10309;SDS011;5200;43.236;27.986;2022-11-20T14:36:55;108.30;;;63.65;;
10309;SDS011;5200;43.236;27.986;2022-11-20T14:39:25;119.70;;;67.88;;
10309;SDS011;5200;43.236;27.986;2022-11-20T14:41:57;106.65;;;59.40;;
10309;SDS011;5200;43.236;27.986;2022-11-20T14:44:25;127.18;;;63.03;;
10309;SDS011;5200;43.236;27.986;2022-11-20T14:46:55;78.70;;;41.58;;
10309;SDS011;5200;43.236;27.986;2022-11-20T14:49:24;34.72;;;11.75;;
10309;SDS011;5200;43.236;27.986;2022-11-20T14:51:58;20.48;;;6.95;;
10309;SDS011;5200;43.236;27.986;2022-11-20T14:54:25;17.50;;;4.65;;
10309;SDS011;5200;43.236;27.986;2022-11-20T14:56:54;17.42;;;5.70;;
10309;SDS011;5200;43.236;27.986;2022-11-20T14:59:22;20.48;;;5.93;;
10309;SDS011;5200;43.236;27.986;2022-11-20T15:01:56;23.02;;;5.32;;
10309;SDS011;5200;43.236;27.986;2022-11-20T15:04:24;19.27;;;5.57;;
10309;SDS011;5200;43.236;27.986;2022-11-20T15:06:52;15.73;;;5.60;;
10309;SDS011;5200;43.236;27.986;2022-11-20T15:09:20;26.27;;;5.95;;
10309;SDS011;5200;43.236;27.986;2022-11-20T15:11:52;20.30;;;6.28;;